createdAt,value
2019-06-20T00:00:21.741Z,72
2019-06-20T00:00:57.713Z,72
2019-06-20T00:01:33.683Z,72
2019-06-20T00:02:09.657Z,71
2019-06-20T00:02:45.743Z,71
2019-06-20T00:03:21.731Z,71
2019-06-20T00:03:57.699Z,71
2019-06-20T00:04:33.617Z,71
2019-06-20T00:05:09.723Z,71
2019-06-20T00:05:45.711Z,71
2019-06-20T00:06:21.725Z,71
2019-06-20T00:06:57.636Z,71
2019-06-20T00:07:33.729Z,70
2019-06-20T00:08:09.714Z,70
2019-06-20T00:08:45.668Z,70
2019-06-20T00:09:21.788Z,70
2019-06-20T00:09:57.715Z,70
2019-06-20T00:10:33.710Z,70
2019-06-20T00:11:09.671Z,70
2019-06-20T00:11:45.620Z,70
2019-06-20T00:12:21.712Z,70
2019-06-20T00:13:01.406Z,70
2019-06-20T00:13:33.669Z,70
2019-06-20T00:14:09.614Z,70
2019-06-20T00:14:45.752Z,70
2019-06-20T00:15:21.670Z,70
2019-06-20T00:15:57.636Z,70
2019-06-20T00:16:33.751Z,70
2019-06-20T00:17:09.695Z,70
2019-06-20T00:17:45.698Z,70
2019-06-20T00:18:21.672Z,70
2019-06-20T00:18:57.741Z,70
2019-06-20T00:19:33.727Z,70
2019-06-20T00:20:09.731Z,70
2019-06-20T00:20:45.652Z,70
2019-06-20T00:21:21.724Z,70
2019-06-20T00:21:57.752Z,70
2019-06-20T00:22:33.680Z,71
2019-06-20T00:23:09.674Z,71
2019-06-20T00:23:45.746Z,71
2019-06-20T00:24:21.724Z,71
2019-06-20T00:24:57.746Z,71
2019-06-20T00:25:33.691Z,71
2019-06-20T00:26:09.827Z,71
2019-06-20T00:26:45.697Z,71
2019-06-20T00:27:21.686Z,71
2019-06-20T00:27:57.646Z,70
2019-06-20T00:28:33.764Z,70
2019-06-20T00:29:09.708Z,70
2019-06-20T00:29:45.728Z,70
2019-06-20T00:30:21.664Z,70
2019-06-20T00:30:57.736Z,70
2019-06-20T00:31:33.706Z,70
2019-06-20T00:32:09.673Z,70
2019-06-20T00:32:45.657Z,70
2019-06-20T00:33:21.829Z,70
2019-06-20T00:33:57.691Z,70
2019-06-20T00:34:33.674Z,71
2019-06-20T00:35:09.645Z,71
2019-06-20T00:35:45.715Z,71
2019-06-20T00:36:21.778Z,71
2019-06-20T00:36:57.674Z,71
2019-06-20T00:37:33.641Z,71
2019-06-20T00:38:09.711Z,71
2019-06-20T00:38:45.690Z,71
2019-06-20T00:39:21.664Z,72
2019-06-20T00:39:57.606Z,72
2019-06-20T00:40:33.791Z,72
2019-06-20T00:41:09.778Z,72
2019-06-20T00:41:45.649Z,72
2019-06-20T00:42:21.646Z,72
2019-06-20T00:42:57.741Z,72
2019-06-20T00:43:33.678Z,72
2019-06-20T00:44:09.642Z,72
2019-06-20T00:44:45.658Z,73
2019-06-20T00:45:21.738Z,73
2019-06-20T00:45:57.712Z,73
2019-06-20T00:46:33.643Z,73
2019-06-20T00:47:09.610Z,73
2019-06-20T00:47:45.823Z,73
2019-06-20T00:48:21.669Z,73
2019-06-20T00:48:57.707Z,73
2019-06-20T00:49:33.606Z,73
2019-06-20T00:50:09.696Z,73
2019-06-20T00:50:45.725Z,73
2019-06-20T00:51:21.677Z,73
2019-06-20T00:51:57.640Z,73
2019-06-20T00:52:33.714Z,73
2019-06-20T00:53:09.662Z,73
2019-06-20T00:53:45.675Z,73
2019-06-20T00:54:21.635Z,73
2019-06-20T00:54:57.703Z,73
2019-06-20T00:55:33.688Z,73
2019-06-20T00:56:09.641Z,73
2019-06-20T00:56:45.590Z,73
2019-06-20T00:57:21.725Z,73
2019-06-20T00:57:57.661Z,73
2019-06-20T00:58:33.834Z,73
2019-06-20T00:59:09.609Z,73
2019-06-20T00:59:45.695Z,73
2019-06-20T01:00:21.681Z,73
2019-06-20T01:00:57.636Z,73
2019-06-20T01:01:33.614Z,73
2019-06-20T01:02:09.716Z,73
2019-06-20T01:02:45.692Z,73
2019-06-20T01:03:21.637Z,73
2019-06-20T01:03:57.628Z,72
2019-06-20T01:04:33.690Z,72
2019-06-20T01:05:09.806Z,73
2019-06-20T01:05:45.651Z,73
2019-06-20T01:06:21.642Z,73
2019-06-20T01:06:57.719Z,73
2019-06-20T01:07:33.721Z,73
2019-06-20T01:08:09.605Z,73
2019-06-20T01:08:45.571Z,73
2019-06-20T01:09:21.685Z,72
2019-06-20T01:09:57.733Z,71
2019-06-20T01:10:33.645Z,71
2019-06-20T01:11:09.595Z,71
2019-06-20T01:11:45.712Z,71
2019-06-20T01:12:21.683Z,71
2019-06-20T01:12:57.602Z,71
2019-06-20T01:13:34.961Z,70
2019-06-20T01:14:09.726Z,70
2019-06-20T01:14:45.704Z,69
2019-06-20T01:15:21.613Z,70
2019-06-20T01:15:57.790Z,69
2019-06-20T01:16:33.660Z,69
2019-06-20T01:17:09.616Z,69
2019-06-20T01:17:45.687Z,70
2019-06-20T01:18:21.677Z,69
2019-06-20T01:18:57.674Z,69
2019-06-20T01:19:33.634Z,69
2019-06-20T01:20:09.616Z,68
2019-06-20T01:20:45.714Z,69
2019-06-20T01:21:21.691Z,68
2019-06-20T01:21:57.675Z,68
2019-06-20T01:22:33.602Z,68
2019-06-20T01:23:09.688Z,68
2019-06-20T01:23:45.799Z,68
2019-06-20T01:24:21.657Z,68
2019-06-20T01:24:57.625Z,69
2019-06-20T01:25:33.705Z,69
2019-06-20T01:26:09.677Z,69
2019-06-20T01:26:45.633Z,69
2019-06-20T01:27:21.618Z,69
2019-06-20T01:27:57.678Z,69
2019-06-20T01:28:33.699Z,69
2019-06-20T01:29:09.617Z,69
2019-06-20T01:29:45.693Z,68
2019-06-20T01:30:21.674Z,69
2019-06-20T01:30:57.662Z,69
2019-06-20T01:31:33.647Z,69
2019-06-20T01:32:09.697Z,69
2019-06-20T01:32:45.796Z,69
2019-06-20T01:33:21.661Z,69
2019-06-20T01:33:57.634Z,69
2019-06-20T01:34:33.752Z,69
2019-06-20T01:35:09.692Z,69
2019-06-20T01:35:57.702Z,69
2019-06-20T01:36:57.597Z,68
2019-06-20T01:37:57.656Z,68
2019-06-20T01:38:45.627Z,68
2019-06-20T01:39:21.619Z,67
2019-06-20T01:39:57.716Z,67
2019-06-20T01:40:45.747Z,67
2019-06-20T01:41:21.632Z,67
2019-06-20T01:41:57.620Z,67
2019-06-20T01:42:33.581Z,67
2019-06-20T01:43:09.699Z,67
2019-06-20T01:43:51.577Z,67
2019-06-20T01:44:21.611Z,66
2019-06-20T01:44:57.592Z,66
2019-06-20T01:45:33.648Z,66
2019-06-20T01:46:09.665Z,66
2019-06-20T01:46:45.673Z,66
2019-06-20T01:47:21.575Z,66
2019-06-20T01:47:57.705Z,66
2019-06-20T01:48:33.662Z,66
2019-06-20T01:49:09.590Z,66
2019-06-20T01:49:45.587Z,67
2019-06-20T01:50:21.661Z,66
2019-06-20T01:50:57.681Z,67
2019-06-20T01:51:33.602Z,67
2019-06-20T01:52:09.601Z,66
2019-06-20T01:52:45.675Z,67
2019-06-20T01:53:21.645Z,67
2019-06-20T01:53:57.586Z,66
2019-06-20T01:54:33.580Z,67
2019-06-20T01:55:09.651Z,68
2019-06-20T01:55:45.638Z,68
2019-06-20T01:56:21.612Z,68
2019-06-20T01:56:57.595Z,68
2019-06-20T01:57:33.695Z,68
2019-06-20T01:58:09.637Z,69
2019-06-20T01:58:45.723Z,69
2019-06-20T01:59:21.569Z,69
2019-06-20T01:59:57.666Z,69
2019-06-20T02:00:33.662Z,70
2019-06-20T02:01:09.625Z,70
2019-06-20T02:01:45.683Z,70
2019-06-20T02:02:21.686Z,71
2019-06-20T02:02:57.710Z,71
2019-06-20T02:03:33.628Z,72
2019-06-20T02:04:09.571Z,72
2019-06-20T02:04:45.638Z,73
2019-06-20T02:05:21.668Z,73
2019-06-20T02:05:57.608Z,74
2019-06-20T02:06:33.555Z,74
2019-06-20T02:07:09.675Z,74
2019-06-20T02:07:45.630Z,75
2019-06-20T02:08:21.640Z,75
2019-06-20T02:08:57.592Z,75
2019-06-20T02:09:33.638Z,75
2019-06-20T02:10:09.684Z,75
2019-06-20T02:10:45.596Z,76
2019-06-20T02:11:21.569Z,76
2019-06-20T02:11:57.657Z,76
2019-06-20T02:12:33.660Z,77
2019-06-20T02:13:09.574Z,77
2019-06-20T02:13:45.572Z,77
2019-06-20T02:14:21.651Z,77
2019-06-20T02:14:57.616Z,77
2019-06-20T02:15:33.588Z,77
2019-06-20T02:16:09.669Z,77
2019-06-20T02:16:45.733Z,76
2019-06-20T02:17:21.610Z,76
2019-06-20T02:17:57.584Z,76
2019-06-20T02:18:33.711Z,76
2019-06-20T02:19:09.658Z,76
2019-06-20T02:19:45.642Z,75
2019-06-20T02:20:21.570Z,75
2019-06-20T02:20:57.668Z,76
2019-06-20T02:21:33.667Z,76
2019-06-20T02:22:09.604Z,76
2019-06-20T02:22:45.582Z,76
2019-06-20T02:23:21.695Z,76
2019-06-20T02:23:57.636Z,76
2019-06-20T02:24:33.605Z,76
2019-06-20T02:25:09.588Z,76
2019-06-20T02:25:45.654Z,76
2019-06-20T02:26:21.631Z,75
2019-06-20T02:26:57.596Z,75
2019-06-20T02:27:33.635Z,75
2019-06-20T02:28:09.713Z,75
2019-06-20T02:28:45.651Z,75
2019-06-20T02:29:21.597Z,75
2019-06-20T02:29:57.583Z,75
2019-06-20T02:30:33.642Z,75
2019-06-20T02:31:09.625Z,75
2019-06-20T02:31:45.598Z,75
2019-06-20T02:32:21.615Z,76
2019-06-20T02:32:57.636Z,76
2019-06-20T02:33:33.621Z,76
2019-06-20T02:34:09.622Z,76
2019-06-20T02:34:45.587Z,75
2019-06-20T02:35:21.656Z,75
2019-06-20T02:35:57.661Z,75
2019-06-20T02:36:33.645Z,75
2019-06-20T02:37:09.683Z,75
2019-06-20T02:37:45.680Z,75
2019-06-20T02:38:21.658Z,75
2019-06-20T02:38:57.604Z,75
2019-06-20T02:39:33.556Z,75
2019-06-20T02:40:09.647Z,75
2019-06-20T02:40:45.660Z,75
2019-06-20T02:41:21.601Z,75
2019-06-20T02:41:57.551Z,75
2019-06-20T02:42:33.631Z,75
2019-06-20T02:43:09.599Z,75
2019-06-20T02:43:45.585Z,75
2019-06-20T02:44:31.300Z,75
2019-06-20T02:44:57.639Z,75
2019-06-20T02:45:33.663Z,75
2019-06-20T02:46:09.559Z,75
2019-06-20T02:46:45.549Z,75
2019-06-20T02:47:21.644Z,75
2019-06-20T02:47:57.601Z,75
2019-06-20T02:48:33.568Z,75
2019-06-20T02:49:09.614Z,75
2019-06-20T02:49:45.636Z,75
2019-06-20T02:50:21.629Z,75
2019-06-20T02:50:57.589Z,75
2019-06-20T02:51:33.555Z,75
2019-06-20T02:52:09.705Z,75
2019-06-20T02:52:45.601Z,75
2019-06-20T02:53:21.567Z,75
2019-06-20T02:53:57.526Z,75
2019-06-20T02:54:33.637Z,75
2019-06-20T02:55:09.638Z,75
2019-06-20T02:55:45.593Z,75
2019-06-20T02:56:21.523Z,74
2019-06-20T02:56:57.613Z,75
2019-06-20T02:57:33.574Z,76
2019-06-20T02:58:09.556Z,76
2019-06-20T02:58:45.525Z,76
2019-06-20T02:59:21.637Z,76
2019-06-20T02:59:57.584Z,76
2019-06-20T03:00:33.775Z,76
2019-06-20T03:01:09.543Z,77
2019-06-20T03:01:45.636Z,77
2019-06-20T03:02:21.585Z,77
2019-06-20T03:02:57.566Z,77
2019-06-20T03:03:33.549Z,77
2019-06-20T03:04:09.631Z,77
2019-06-20T03:04:46.304Z,77
2019-06-20T03:05:21.560Z,77
2019-06-20T03:05:57.527Z,77
2019-06-20T03:06:33.602Z,77
2019-06-20T03:07:09.587Z,77
2019-06-20T03:07:45.566Z,77
2019-06-20T03:08:21.522Z,77
2019-06-20T03:08:57.603Z,76
2019-06-20T03:09:33.631Z,76
2019-06-20T03:10:09.560Z,76
2019-06-20T03:10:45.518Z,76
2019-06-20T03:11:21.609Z,76
2019-06-20T03:11:57.575Z,76
2019-06-20T03:12:33.528Z,77
2019-06-20T03:13:10.214Z,77
2019-06-20T03:13:45.615Z,77
2019-06-20T03:14:21.619Z,77
2019-06-20T03:14:57.543Z,77
2019-06-20T03:15:33.627Z,77
2019-06-20T03:16:09.599Z,76
2019-06-20T03:16:45.625Z,76
2019-06-20T03:17:21.556Z,76
2019-06-20T03:17:57.616Z,76
2019-06-20T03:18:33.597Z,76
2019-06-20T03:19:09.614Z,76
2019-06-20T03:19:45.559Z,76
2019-06-20T03:20:21.640Z,76
2019-06-20T03:20:57.622Z,76
2019-06-20T03:21:33.599Z,76
2019-06-20T03:22:09.550Z,76
2019-06-20T03:22:45.622Z,76
2019-06-20T03:23:21.592Z,76
2019-06-20T03:23:57.571Z,76
2019-06-20T03:24:33.546Z,77
2019-06-20T03:25:09.619Z,77
2019-06-20T03:25:45.601Z,76
2019-06-20T03:26:21.548Z,77
2019-06-20T03:26:57.534Z,76
2019-06-20T03:27:33.619Z,77
2019-06-20T03:28:09.588Z,76
2019-06-20T03:28:45.557Z,76
2019-06-20T03:29:21.574Z,76
2019-06-20T03:29:57.614Z,76
2019-06-20T03:30:33.600Z,76
2019-06-20T03:31:09.552Z,76
2019-06-20T03:31:45.550Z,76
2019-06-20T03:32:21.653Z,76
2019-06-20T03:32:57.644Z,76
2019-06-20T03:33:33.675Z,77
2019-06-20T03:34:09.575Z,77
2019-06-20T03:34:45.606Z,78
2019-06-20T03:35:21.598Z,78
2019-06-20T03:35:57.553Z,78
2019-06-20T03:36:33.551Z,79
2019-06-20T03:37:09.608Z,79
2019-06-20T03:37:45.579Z,79
2019-06-20T03:38:21.560Z,79
2019-06-20T03:38:57.497Z,79
2019-06-20T03:39:33.667Z,79
2019-06-20T03:40:09.567Z,79
2019-06-20T03:40:45.546Z,80
2019-06-20T03:41:21.507Z,79
2019-06-20T03:41:57.606Z,79
2019-06-20T03:42:33.557Z,79
2019-06-20T03:43:09.535Z,79
2019-06-20T03:43:45.534Z,79
2019-06-20T03:44:21.635Z,80
2019-06-20T03:45:03.127Z,80
2019-06-20T03:45:33.530Z,80
2019-06-20T03:46:09.489Z,80
2019-06-20T03:46:45.580Z,80
2019-06-20T03:47:21.618Z,80
2019-06-20T03:47:57.518Z,80
2019-06-20T03:48:33.516Z,80
2019-06-20T03:49:09.613Z,80
2019-06-20T03:49:45.556Z,79
2019-06-20T03:50:21.578Z,79
2019-06-20T03:50:57.500Z,79
2019-06-20T03:51:33.590Z,79
2019-06-20T03:52:09.629Z,79
2019-06-20T03:52:45.530Z,79
2019-06-20T03:53:21.533Z,79
2019-06-20T03:53:57.579Z,79
2019-06-20T03:54:33.574Z,79
2019-06-20T03:55:09.537Z,78
2019-06-20T03:55:45.520Z,78
2019-06-20T03:56:21.568Z,78
2019-06-20T03:56:57.542Z,78
2019-06-20T03:57:33.522Z,78
2019-06-20T03:58:09.536Z,78
2019-06-20T03:58:45.628Z,78
2019-06-20T03:59:21.592Z,78
2019-06-20T03:59:57.516Z,78
2019-06-20T04:00:33.511Z,79
2019-06-20T04:01:09.573Z,79
2019-06-20T04:01:49.354Z,78
2019-06-20T04:02:21.538Z,78
2019-06-20T04:02:57.495Z,78
2019-06-20T04:03:33.608Z,78
2019-06-20T04:04:09.572Z,79
2019-06-20T04:04:45.519Z,79
2019-06-20T04:05:21.484Z,78
2019-06-20T04:05:57.584Z,78
2019-06-20T04:06:33.548Z,78
2019-06-20T04:07:09.547Z,78
2019-06-20T04:07:45.500Z,77
2019-06-20T04:08:21.572Z,77
2019-06-20T04:08:57.554Z,77
2019-06-20T04:09:33.869Z,77
2019-06-20T04:10:09.595Z,76
2019-06-20T04:10:45.562Z,76
2019-06-20T04:11:21.549Z,75
2019-06-20T04:11:57.522Z,75
2019-06-20T04:12:33.622Z,75
2019-06-20T04:13:09.595Z,75
2019-06-20T04:13:45.541Z,75
2019-06-20T04:14:21.516Z,75
2019-06-20T04:14:57.590Z,74
2019-06-20T04:15:33.662Z,73
2019-06-20T04:16:09.530Z,73
2019-06-20T04:16:45.548Z,73
2019-06-20T04:17:21.582Z,73
2019-06-20T04:17:57.569Z,72
2019-06-20T04:18:33.523Z,72
2019-06-20T04:19:09.502Z,72
2019-06-20T04:19:45.679Z,71
2019-06-20T04:20:21.554Z,70
2019-06-20T04:20:57.527Z,70
2019-06-20T04:21:33.493Z,70
2019-06-20T04:22:09.597Z,70
2019-06-20T04:22:45.566Z,71
2019-06-20T04:23:21.536Z,70
2019-06-20T04:23:57.483Z,71
2019-06-20T04:24:33.586Z,71
2019-06-20T04:25:09.591Z,71
2019-06-20T04:25:45.527Z,71
2019-06-20T04:26:21.489Z,71
2019-06-20T04:26:57.577Z,70
2019-06-20T04:27:33.527Z,70
2019-06-20T04:28:09.652Z,69
2019-06-20T04:28:45.497Z,68
2019-06-20T04:29:21.609Z,68
2019-06-20T04:29:57.556Z,68
2019-06-20T04:30:33.566Z,68
2019-06-20T04:31:09.617Z,67
2019-06-20T04:31:45.580Z,67
2019-06-20T04:32:21.558Z,67
2019-06-20T04:32:57.503Z,67
2019-06-20T04:33:33.510Z,67
2019-06-20T04:34:09.617Z,67
2019-06-20T04:34:45.539Z,67
2019-06-20T04:35:21.592Z,67
2019-06-20T04:35:57.490Z,66
2019-06-20T04:36:33.560Z,66
2019-06-20T04:37:09.575Z,65
2019-06-20T04:37:45.518Z,65
2019-06-20T04:38:21.485Z,64
2019-06-20T04:38:57.573Z,63
2019-06-20T04:39:33.515Z,62
2019-06-20T04:40:09.533Z,63
2019-06-20T04:40:45.476Z,63
2019-06-20T04:41:21.550Z,63
2019-06-20T04:41:57.557Z,63
2019-06-20T04:42:33.601Z,63
2019-06-20T04:43:11.194Z,63
2019-06-20T04:43:45.560Z,63
2019-06-20T04:44:21.626Z,63
2019-06-20T04:44:57.516Z,63
2019-06-20T04:45:36.210Z,62
2019-06-20T04:46:09.536Z,62
2019-06-20T04:46:45.523Z,61
2019-06-20T04:47:21.518Z,61
2019-06-20T04:47:57.509Z,61
2019-06-20T04:48:33.554Z,61
2019-06-20T04:49:11.048Z,61
2019-06-20T04:49:45.497Z,61
2019-06-20T04:50:21.480Z,61
2019-06-20T04:50:57.760Z,62
2019-06-20T04:51:33.513Z,62
2019-06-20T04:52:09.745Z,62
2019-06-20T04:52:45.481Z,62
2019-06-20T04:53:21.581Z,62
2019-06-20T04:53:57.529Z,62
2019-06-20T04:54:33.499Z,62
2019-06-20T04:55:09.715Z,61
2019-06-20T04:55:45.555Z,61
2019-06-20T04:56:21.538Z,60
2019-06-20T04:56:57.504Z,60
2019-06-20T04:57:33.446Z,59
2019-06-20T04:58:09.640Z,58
2019-06-20T04:58:45.539Z,58
2019-06-20T04:59:21.492Z,58
2019-06-20T04:59:57.458Z,58
2019-06-20T05:00:33.544Z,59
2019-06-20T05:01:09.706Z,59
2019-06-20T05:01:45.483Z,59
2019-06-20T05:02:21.470Z,59
2019-06-20T05:02:57.538Z,59
2019-06-20T05:03:33.697Z,59
2019-06-20T05:04:09.667Z,60
2019-06-20T05:04:45.549Z,60
2019-06-20T05:05:21.527Z,60
2019-06-20T05:05:57.516Z,59
2019-06-20T05:06:33.456Z,59
2019-06-20T05:07:09.453Z,59
2019-06-20T05:07:45.618Z,59
2019-06-20T05:08:21.486Z,59
2019-06-20T05:08:57.526Z,60
2019-06-20T05:09:33.440Z,60
2019-06-20T05:10:09.648Z,60
2019-06-20T05:10:45.496Z,60
2019-06-20T05:11:21.463Z,60
2019-06-20T05:11:57.437Z,60
2019-06-20T05:12:33.524Z,60
2019-06-20T05:13:09.747Z,60
2019-06-20T05:13:45.546Z,60
2019-06-20T05:14:21.548Z,60
2019-06-20T05:14:57.559Z,60
2019-06-20T05:15:33.503Z,61
2019-06-20T05:16:09.706Z,61
2019-06-20T05:16:45.547Z,61
2019-06-20T05:17:21.537Z,61
2019-06-20T05:17:57.579Z,61
2019-06-20T05:18:33.478Z,61
2019-06-20T05:19:10.334Z,62
2019-06-20T05:19:45.513Z,61
2019-06-20T05:20:21.524Z,61
2019-06-20T05:20:57.459Z,61
2019-06-20T05:21:33.531Z,62
2019-06-20T05:22:21.547Z,61
2019-06-20T05:22:57.587Z,62
2019-06-20T05:23:33.473Z,62
2019-06-20T05:24:09.670Z,61
2019-06-20T05:24:45.576Z,61
2019-06-20T05:25:21.496Z,61
2019-06-20T05:25:57.501Z,61
2019-06-20T05:26:33.489Z,61
2019-06-20T05:27:09.677Z,61
2019-06-20T05:27:45.660Z,61
2019-06-20T05:28:21.501Z,61
2019-06-20T05:28:57.491Z,61
2019-06-20T05:29:45.607Z,60
2019-06-20T05:30:45.473Z,60
2019-06-20T05:31:21.491Z,61
2019-06-20T05:31:57.537Z,61
2019-06-20T05:32:33.490Z,61
2019-06-20T05:33:09.741Z,61
2019-06-20T05:33:45.517Z,61
2019-06-20T05:34:21.529Z,61
2019-06-20T05:34:57.549Z,60
2019-06-20T05:35:33.584Z,60
2019-06-20T05:36:09.446Z,61
2019-06-20T05:36:45.530Z,61
2019-06-20T05:37:33.530Z,59
2019-06-20T05:38:09.648Z,58
2019-06-20T05:39:09.650Z,58
2019-06-20T05:39:45.533Z,58
2019-06-20T05:40:21.469Z,59
2019-06-20T05:40:57.477Z,59
2019-06-20T05:41:33.540Z,59
2019-06-20T05:42:09.755Z,59
2019-06-20T05:42:57.489Z,58
2019-06-20T05:43:33.449Z,57
2019-06-20T05:44:09.708Z,58
2019-06-20T05:44:57.487Z,57
2019-06-20T05:46:11.511Z,57
2019-06-20T05:46:33.427Z,58
2019-06-20T05:47:14.427Z,58
2019-06-20T05:47:45.481Z,58
2019-06-20T05:48:21.464Z,58
2019-06-20T05:48:57.439Z,58
2019-06-20T05:49:33.544Z,59
2019-06-20T05:50:09.486Z,59
2019-06-20T05:50:45.475Z,58
2019-06-20T05:51:21.414Z,58
2019-06-20T05:51:57.529Z,58
2019-06-20T05:52:33.527Z,58
2019-06-20T05:53:09.527Z,57
2019-06-20T05:53:45.410Z,57
2019-06-20T05:54:22.362Z,57
2019-06-20T05:54:58.269Z,57
2019-06-20T05:55:45.513Z,58
2019-06-20T05:56:21.466Z,58
2019-06-20T05:56:57.450Z,59
2019-06-20T05:57:33.519Z,60
2019-06-20T05:58:09.484Z,59
2019-06-20T05:58:57.525Z,59
2019-06-20T05:59:33.502Z,60
2019-06-20T06:00:09.501Z,60
2019-06-20T06:00:45.596Z,60
2019-06-20T06:01:21.487Z,60
2019-06-20T06:01:57.428Z,59
2019-06-20T06:02:33.397Z,59
2019-06-20T06:03:09.518Z,59
2019-06-20T06:03:45.449Z,59
2019-06-20T06:04:21.529Z,60
2019-06-20T06:04:57.460Z,60
2019-06-20T06:05:33.552Z,59
2019-06-20T06:06:09.497Z,60
2019-06-20T06:06:45.434Z,60
2019-06-20T06:07:33.422Z,60
2019-06-20T06:08:09.444Z,59
2019-06-20T06:08:45.534Z,58
2019-06-20T06:09:21.538Z,58
2019-06-20T06:09:57.457Z,58
2019-06-20T06:10:33.416Z,58
2019-06-20T06:11:09.477Z,57
2019-06-20T06:11:45.486Z,57
2019-06-20T06:12:21.408Z,57
2019-06-20T06:12:57.394Z,57
2019-06-20T06:13:33.482Z,57
2019-06-20T06:14:09.461Z,56
2019-06-20T06:14:45.476Z,57
2019-06-20T06:15:33.474Z,57
2019-06-20T06:16:28.603Z,57
2019-06-20T06:17:21.658Z,56
2019-06-20T06:17:57.418Z,57
2019-06-20T06:18:33.507Z,56
2019-06-20T06:19:09.515Z,56
2019-06-20T06:19:45.496Z,56
2019-06-20T06:20:33.457Z,56
2019-06-20T06:21:09.411Z,56
2019-06-20T06:21:45.532Z,56
2019-06-20T06:22:21.475Z,55
2019-06-20T06:23:09.504Z,55
2019-06-20T06:23:45.460Z,55
2019-06-20T06:24:21.518Z,55
2019-06-20T06:24:57.515Z,55
2019-06-20T06:25:33.472Z,55
2019-06-20T06:26:33.497Z,55
2019-06-20T06:27:09.458Z,55
2019-06-20T06:27:45.482Z,55
2019-06-20T06:28:21.402Z,56
2019-06-20T06:28:57.485Z,56
2019-06-20T06:29:33.491Z,56
2019-06-20T06:30:09.461Z,56
2019-06-20T06:30:45.395Z,56
2019-06-20T06:31:21.518Z,56
2019-06-20T06:31:57.508Z,55
2019-06-20T06:32:41.138Z,55
2019-06-20T06:33:09.433Z,55
2019-06-20T06:33:57.391Z,56
2019-06-20T06:34:33.538Z,55
2019-06-20T06:35:09.537Z,55
2019-06-20T06:35:45.448Z,55
2019-06-20T06:37:45.468Z,53
2019-06-20T06:38:57.501Z,52
2019-06-20T06:39:45.449Z,53
2019-06-20T06:40:21.411Z,53
2019-06-20T06:41:33.459Z,52
2019-06-20T06:42:21.441Z,51
2019-06-20T06:42:57.452Z,52
2019-06-20T06:43:45.433Z,52
2019-06-20T06:44:21.403Z,53
2019-06-20T06:44:57.469Z,53
2019-06-20T06:45:33.537Z,54
2019-06-20T06:46:09.457Z,54
2019-06-20T06:46:59.801Z,54
2019-06-20T06:47:57.452Z,53
2019-06-20T06:48:33.426Z,54
2019-06-20T06:49:09.379Z,54
2019-06-20T06:49:45.510Z,54
2019-06-20T06:50:21.452Z,53
2019-06-20T06:51:21.477Z,53
2019-06-20T06:51:57.451Z,53
2019-06-20T06:52:33.418Z,54
2019-06-20T06:53:21.452Z,53
2019-06-20T06:54:21.456Z,55
2019-06-20T06:54:57.418Z,55
2019-06-20T06:55:45.458Z,56
2019-06-20T06:56:33.513Z,57
2019-06-20T06:57:33.454Z,58
2019-06-20T06:58:21.451Z,59
2019-06-20T06:59:09.432Z,58
2019-06-20T07:00:09.477Z,59
2019-06-20T07:00:45.502Z,58
2019-06-20T07:01:45.490Z,59
2019-06-20T07:02:21.431Z,60
2019-06-20T07:02:57.407Z,60
2019-06-20T07:03:33.412Z,60
2019-06-20T07:04:09.493Z,61
2019-06-20T07:04:45.435Z,61
2019-06-20T07:05:21.436Z,61
2019-06-20T07:05:57.380Z,62
2019-06-20T07:06:45.429Z,62
2019-06-20T07:07:21.639Z,62
2019-06-20T07:07:57.438Z,62
2019-06-20T07:08:33.388Z,62
2019-06-20T07:09:09.357Z,62
2019-06-20T07:09:45.515Z,62
2019-06-20T07:10:21.447Z,62
2019-06-20T07:10:57.372Z,62
2019-06-20T07:11:33.364Z,63
2019-06-20T07:12:09.450Z,63
2019-06-20T07:12:45.441Z,63
2019-06-20T07:13:21.393Z,63
2019-06-20T07:13:57.477Z,62
2019-06-20T07:14:33.449Z,63
2019-06-20T07:15:09.462Z,63
2019-06-20T07:15:45.444Z,63
2019-06-20T07:16:33.404Z,64
2019-06-20T07:17:21.459Z,64
2019-06-20T07:18:09.382Z,66
2019-06-20T07:18:45.464Z,66
2019-06-20T07:19:21.500Z,69
2019-06-20T07:19:57.408Z,69
2019-06-20T07:20:33.362Z,69
2019-06-20T07:21:09.537Z,71
2019-06-20T07:21:45.462Z,71
2019-06-20T07:22:21.451Z,71
2019-06-20T07:22:57.441Z,71
2019-06-20T07:23:45.438Z,72
2019-06-20T07:24:21.477Z,73
2019-06-20T07:24:57.440Z,73
2019-06-20T07:25:45.435Z,73
2019-06-20T07:26:21.407Z,73
2019-06-20T07:26:57.396Z,71
2019-06-20T07:27:45.372Z,73
2019-06-20T07:28:21.482Z,75
2019-06-20T07:28:57.446Z,74
2019-06-20T07:29:33.391Z,74
2019-06-20T07:30:09.403Z,74
2019-06-20T07:30:45.488Z,75
2019-06-20T07:31:21.478Z,75
2019-06-20T07:31:57.439Z,75
2019-06-20T07:32:33.378Z,75
2019-06-20T07:33:09.464Z,75
2019-06-20T07:33:45.421Z,75
2019-06-20T07:34:21.433Z,75
2019-06-20T07:34:57.372Z,75
2019-06-20T07:35:33.446Z,76
2019-06-20T07:36:09.406Z,77
2019-06-20T07:36:45.461Z,78
2019-06-20T07:37:21.404Z,79
2019-06-20T07:37:57.459Z,79
2019-06-20T07:38:33.440Z,79
2019-06-20T07:39:09.373Z,80
2019-06-20T07:39:45.373Z,80
2019-06-20T07:40:21.435Z,81
2019-06-20T07:40:57.415Z,81
2019-06-20T07:41:33.452Z,81
2019-06-20T07:42:09.364Z,82
2019-06-20T07:42:45.461Z,83
2019-06-20T07:43:33.437Z,83
2019-06-20T07:44:09.422Z,83
2019-06-20T07:44:45.423Z,83
2019-06-20T07:45:21.353Z,84
2019-06-20T07:46:03.718Z,84
2019-06-20T07:46:33.401Z,84
2019-06-20T07:47:18.601Z,84
2019-06-20T07:47:45.413Z,84
2019-06-20T07:48:21.467Z,84
2019-06-20T07:48:57.447Z,84
2019-06-20T07:49:33.387Z,84
2019-06-20T07:50:09.337Z,85
2019-06-20T07:50:45.463Z,85
2019-06-20T07:51:21.516Z,85
2019-06-20T07:51:57.413Z,85
2019-06-20T07:52:33.328Z,85
2019-06-20T07:53:09.442Z,85
2019-06-20T07:53:45.397Z,85
2019-06-20T07:54:21.354Z,86
2019-06-20T07:54:57.349Z,86
2019-06-20T07:55:33.429Z,86
2019-06-20T07:56:10.106Z,86
2019-06-20T07:56:45.438Z,86
2019-06-20T07:57:21.344Z,86
2019-06-20T07:57:57.413Z,86
2019-06-20T07:58:33.460Z,86
2019-06-20T07:59:09.380Z,86
2019-06-20T07:59:45.333Z,85
2019-06-20T08:00:21.429Z,86
2019-06-20T08:00:57.425Z,86
2019-06-20T08:01:33.376Z,86
2019-06-20T08:02:09.324Z,86
2019-06-20T08:02:45.512Z,87
2019-06-20T08:03:33.449Z,87
2019-06-20T08:04:09.379Z,85
2019-06-20T08:04:45.378Z,84
2019-06-20T08:05:21.355Z,84
2019-06-20T08:05:57.506Z,83
2019-06-20T08:06:33.385Z,83
2019-06-20T08:07:09.389Z,83
2019-06-20T08:07:45.315Z,83
2019-06-20T08:08:21.459Z,83
2019-06-20T08:09:09.437Z,82
2019-06-20T08:09:46.082Z,82
2019-06-20T08:10:33.375Z,81
2019-06-20T08:11:09.372Z,81
2019-06-20T08:11:57.362Z,80
2019-06-20T08:12:33.337Z,81
2019-06-20T08:13:09.411Z,80
2019-06-20T08:13:45.410Z,80
2019-06-20T08:14:21.501Z,80
2019-06-20T08:15:14.293Z,80
2019-06-20T08:15:57.364Z,81
2019-06-20T08:16:33.515Z,81
2019-06-20T08:17:09.478Z,82
2019-06-20T08:17:57.428Z,82
2019-06-20T08:18:33.369Z,82
2019-06-20T08:19:09.348Z,82
2019-06-20T08:19:45.416Z,83
2019-06-20T08:20:57.381Z,76
2019-06-20T08:21:45.382Z,75
2019-06-20T08:22:21.341Z,74
2019-06-20T08:22:57.756Z,74
2019-06-20T08:23:33.462Z,74
2019-06-20T08:24:09.428Z,75
2019-06-20T08:24:45.404Z,70
2019-06-20T08:25:21.432Z,70
2019-06-20T08:26:00.502Z,69
2019-06-20T08:26:33.374Z,70
2019-06-20T08:27:09.355Z,71
2019-06-20T08:27:45.433Z,69
2019-06-20T08:28:21.394Z,69
2019-06-20T08:29:21.521Z,66
2019-06-20T08:30:09.433Z,67
2019-06-20T08:31:00.454Z,68
2019-06-20T08:31:33.377Z,68
2019-06-20T08:32:09.482Z,69
2019-06-20T08:32:45.329Z,70
2019-06-20T08:33:21.444Z,68
2019-06-20T08:34:00.714Z,69
2019-06-20T08:35:02.405Z,70
2019-06-20T08:35:33.421Z,68
2019-06-20T08:36:09.366Z,69
2019-06-20T08:36:45.320Z,70
2019-06-20T08:37:21.434Z,70
2019-06-20T08:38:03.287Z,71
2019-06-20T08:38:33.376Z,72
2019-06-20T08:39:09.351Z,70
2019-06-20T08:39:45.409Z,70
2019-06-20T08:40:21.375Z,71
2019-06-20T08:41:00.421Z,71
2019-06-20T08:41:45.422Z,72
2019-06-20T08:42:21.304Z,68
2019-06-20T08:43:01.631Z,70
2019-06-20T08:43:33.371Z,70
2019-06-20T08:44:09.460Z,66
2019-06-20T08:44:59.725Z,69
2019-06-20T08:45:33.347Z,67
2019-06-20T08:46:10.974Z,67
2019-06-20T08:46:45.381Z,68
2019-06-20T08:47:21.454Z,69
2019-06-20T08:48:00.344Z,67
2019-06-20T08:48:59.803Z,64
2019-06-20T08:49:33.297Z,66
2019-06-20T08:50:09.432Z,65
2019-06-20T08:50:45.413Z,66
2019-06-20T08:51:21.337Z,66
2019-06-20T08:51:59.104Z,67